createdAt,value
2019-03-17T00:01:12.203Z,11.50
2019-03-17T00:03:43.391Z,11.50
2019-03-17T00:06:36.576Z,11.50
2019-03-17T00:09:11.975Z,11.60
2019-03-17T00:12:35.218Z,11.70
2019-03-17T00:15:11.292Z,11.80
2019-03-17T00:18:19.789Z,11.80
2019-03-17T00:20:55.919Z,11.80
2019-03-17T00:23:30.949Z,11.80
2019-03-17T00:26:05.233Z,11.90
2019-03-17T00:29:01.747Z,11.90
2019-03-17T00:35:28.935Z,11.90
2019-03-17T00:38:54.922Z,11.90
2019-03-17T00:41:33.556Z,12.00
2019-03-17T00:44:15.724Z,12.00
2019-03-17T00:47:20.817Z,12.00
2019-03-17T00:50:11.017Z,12.00
2019-03-17T00:52:45.896Z,12.00
2019-03-17T00:55:31.662Z,12.00
2019-03-17T00:58:09.313Z,12.00
2019-03-17T01:00:44.754Z,12.00
2019-03-17T01:03:14.822Z,12.00
2019-03-17T01:05:45.243Z,12.00
2019-03-17T01:08:15.459Z,12.00
2019-03-17T01:10:46.350Z,12.10
2019-03-17T01:13:17.276Z,12.00
2019-03-17T01:15:58.363Z,12.10
2019-03-17T01:18:31.108Z,12.00
2019-03-17T01:21:07.485Z,12.10
2019-03-17T01:23:37.909Z,12.20
2019-03-17T01:26:08.539Z,12.10
2019-03-17T01:28:38.646Z,12.10
2019-03-17T01:31:09.689Z,12.10
2019-03-17T01:33:42.952Z,12.10
2019-03-17T01:36:15.218Z,12.00
2019-03-17T01:38:47.407Z,12.00
2019-03-17T01:41:22.085Z,12.00
2019-03-17T01:43:54.073Z,12.00
2019-03-17T01:46:33.709Z,11.90
2019-03-17T01:49:06.782Z,11.90
2019-03-17T01:51:37.553Z,11.90
2019-03-17T01:54:15.393Z,11.90
2019-03-17T01:56:46.623Z,11.90
2019-03-17T01:59:23.838Z,11.80
2019-03-17T02:01:55.693Z,11.90
2019-03-17T02:04:31.490Z,11.90
2019-03-17T02:07:10.660Z,11.80
2019-03-17T02:09:41.198Z,11.80
2019-03-17T02:12:23.682Z,11.80
2019-03-17T02:14:54.643Z,11.70
2019-03-17T02:17:25.020Z,11.70
2019-03-17T02:20:23.886Z,11.70
2019-03-17T02:22:54.342Z,11.60
2019-03-17T02:25:24.990Z,11.60
2019-03-17T02:27:55.020Z,11.60
2019-03-17T02:30:29.346Z,11.60
2019-03-17T02:33:01.682Z,11.60
2019-03-17T02:35:39.296Z,11.60
2019-03-17T02:38:05.138Z,11.60
2019-03-17T02:40:35.768Z,11.60
2019-03-17T02:43:09.351Z,11.60
2019-03-17T02:45:40.103Z,11.60
2019-03-17T02:48:20.080Z,11.60
2019-03-17T02:50:55.718Z,11.50
2019-03-17T02:53:35.795Z,11.50
2019-03-17T02:56:20.216Z,11.40
2019-03-17T02:58:53.803Z,11.40
2019-03-17T03:01:23.741Z,11.40
2019-03-17T03:03:59.186Z,11.40
2019-03-17T03:06:46.960Z,11.40
2019-03-17T03:09:20.932Z,11.40
2019-03-17T03:11:57.602Z,11.40
2019-03-17T03:14:41.529Z,11.40
2019-03-17T03:17:36.270Z,11.40
2019-03-17T03:20:07.216Z,11.40
2019-03-17T03:22:37.238Z,11.40
2019-03-17T03:25:15.477Z,11.40
2019-03-17T03:27:47.338Z,11.40
2019-03-17T03:30:30.196Z,11.50
2019-03-17T03:33:00.826Z,11.50
2019-03-17T03:35:32.552Z,11.40
2019-03-17T03:38:02.911Z,11.30
2019-03-17T03:40:33.146Z,11.30
2019-03-17T03:43:03.895Z,11.20
2019-03-17T03:45:34.381Z,11.20
2019-03-17T03:48:09.453Z,11.10
2019-03-17T03:50:40.777Z,11.10
2019-03-17T03:53:11.218Z,11.10
2019-03-17T03:55:42.299Z,11.10
2019-03-17T03:58:12.787Z,11.10
2019-03-17T04:00:57.519Z,11.10
2019-03-17T04:03:33.726Z,11.10
2019-03-17T04:06:08.089Z,11.10
2019-03-17T04:08:38.025Z,11.10
2019-03-17T04:11:08.150Z,11.10
2019-03-17T04:13:38.263Z,11.00
2019-03-17T04:16:24.446Z,11.00
2019-03-17T04:19:16.200Z,11.00
2019-03-17T04:21:54.980Z,10.90
2019-03-17T04:24:32.263Z,10.90
2019-03-17T04:27:02.710Z,10.90
2019-03-17T04:29:47.941Z,10.90
2019-03-17T04:32:18.144Z,10.90
2019-03-17T04:34:47.992Z,10.80
2019-03-17T04:37:17.781Z,10.80
2019-03-17T04:39:47.770Z,10.80
2019-03-17T04:42:17.642Z,10.80
2019-03-17T04:44:47.544Z,10.80
2019-03-17T04:47:19.244Z,10.80
2019-03-17T04:49:50.836Z,10.80
2019-03-17T04:52:21.600Z,10.80
2019-03-17T04:54:53.044Z,10.80
2019-03-17T04:57:22.935Z,10.80
2019-03-17T04:59:56.478Z,10.80
2019-03-17T05:02:26.414Z,10.80
2019-03-17T05:04:56.693Z,10.80
2019-03-17T05:07:26.688Z,10.80
2019-03-17T05:09:56.646Z,10.80
2019-03-17T05:12:32.354Z,10.80
2019-03-17T05:15:02.393Z,10.80
2019-03-17T05:17:32.401Z,10.80
2019-03-17T05:20:08.104Z,10.70
2019-03-17T05:22:38.429Z,10.70
2019-03-17T05:25:11.935Z,10.80
2019-03-17T05:27:42.252Z,10.80
2019-03-17T05:30:12.154Z,10.80
2019-03-17T05:32:42.139Z,10.80
2019-03-17T05:35:12.157Z,10.70
2019-03-17T05:37:42.256Z,10.70
2019-03-17T05:40:12.199Z,10.70
2019-03-17T05:42:42.252Z,10.80
2019-03-17T05:45:12.449Z,10.80
2019-03-17T05:47:42.669Z,10.70
2019-03-17T05:50:12.781Z,10.70
2019-03-17T05:52:43.203Z,10.60
2019-03-17T05:55:13.556Z,10.50
2019-03-17T05:57:43.679Z,10.50
2019-03-17T06:00:15.308Z,10.40
2019-03-17T06:02:45.626Z,10.30
2019-03-17T06:05:15.678Z,10.10
2019-03-17T06:07:46.174Z,10.00
2019-03-17T06:10:16.515Z,9.80
2019-03-17T06:12:49.170Z,9.70
2019-03-17T06:15:19.824Z,9.50
2019-03-17T06:17:49.913Z,9.40
2019-03-17T06:20:20.058Z,9.30
2019-03-17T06:22:51.422Z,9.30
2019-03-17T06:25:21.510Z,9.20
2019-03-17T06:27:51.393Z,9.20
2019-03-17T06:30:21.318Z,9.10
2019-03-17T06:32:51.379Z,9.00
2019-03-17T06:35:21.440Z,9.00
2019-03-17T06:37:51.396Z,9.00
2019-03-17T06:40:24.638Z,8.90
2019-03-17T06:42:55.376Z,8.90
2019-03-17T06:45:28.418Z,8.90
2019-03-17T06:47:58.953Z,8.90
2019-03-17T06:50:29.160Z,8.90
2019-03-17T06:52:59.239Z,8.90
2019-03-17T06:55:29.385Z,8.80
2019-03-17T06:58:00.009Z,8.90
2019-03-17T07:00:30.355Z,8.80
2019-03-17T07:03:02.521Z,8.80
2019-03-17T07:05:32.663Z,8.80
2019-03-17T07:08:02.840Z,8.80
2019-03-17T07:10:33.193Z,8.80
2019-03-17T07:13:03.752Z,8.80
2019-03-17T07:15:33.758Z,8.80
2019-03-17T07:18:07.080Z,8.80
2019-03-17T07:20:37.321Z,8.80
2019-03-17T07:23:10.241Z,8.80
2019-03-17T07:25:40.218Z,8.70
2019-03-17T07:28:10.217Z,8.80
2019-03-17T07:30:42.296Z,8.70
2019-03-17T07:33:12.130Z,8.70
2019-03-17T07:35:48.492Z,8.80
2019-03-17T07:38:21.914Z,8.80
2019-03-17T07:40:53.242Z,8.70
2019-03-17T07:43:23.264Z,8.70
2019-03-17T07:45:56.014Z,8.70
2019-03-17T07:48:30.725Z,8.70
2019-03-17T07:51:04.666Z,8.60
2019-03-17T07:53:36.384Z,8.50
2019-03-17T07:56:06.913Z,8.20
2019-03-17T07:58:37.355Z,7.90
2019-03-17T08:01:10.462Z,7.90
2019-03-17T08:03:40.392Z,7.80
2019-03-17T08:06:12.384Z,7.90
2019-03-17T08:08:42.665Z,8.00
2019-03-17T08:11:15.135Z,8.10
2019-03-17T08:13:46.473Z,8.10
2019-03-17T08:16:19.401Z,8.10
2019-03-17T08:18:49.996Z,8.10
2019-03-17T08:21:24.643Z,8.20
2019-03-17T08:23:59.752Z,8.20
2019-03-17T08:26:30.414Z,8.30
2019-03-17T08:29:00.675Z,8.40
2019-03-17T08:31:31.106Z,8.40
2019-03-17T08:34:03.308Z,8.40
2019-03-17T08:36:38.992Z,8.40
2019-03-17T08:39:09.635Z,8.40
2019-03-17T08:41:42.885Z,8.50
2019-03-17T08:44:13.508Z,8.50
2019-03-17T08:46:44.509Z,8.40
2019-03-17T08:49:16.913Z,8.50
2019-03-17T08:51:47.279Z,8.50
2019-03-17T08:54:21.209Z,8.60
2019-03-17T08:56:51.243Z,8.60
2019-03-17T08:59:27.668Z,8.80
2019-03-17T09:02:00.313Z,8.80
2019-03-17T09:04:34.466Z,9.00
2019-03-17T09:07:06.794Z,9.00
2019-03-17T09:09:38.671Z,8.80
2019-03-17T09:12:10.303Z,8.80
2019-03-17T09:14:40.571Z,8.80
2019-03-17T09:17:14.893Z,8.90
2019-03-17T09:19:50.342Z,9.00
2019-03-17T09:22:27.282Z,8.90
2019-03-17T09:25:02.293Z,9.00
2019-03-17T09:27:35.531Z,9.10
2019-03-17T09:30:14.470Z,9.10
2019-03-17T09:32:45.595Z,9.00
2019-03-17T09:35:15.849Z,9.00
2019-03-17T09:37:47.047Z,9.10
2019-03-17T09:40:19.839Z,9.20
2019-03-17T09:42:50.618Z,9.20
2019-03-17T09:45:21.073Z,9.40
2019-03-17T09:47:55.677Z,9.50
2019-03-17T09:50:45.196Z,9.60
2019-03-17T09:53:17.978Z,9.80
2019-03-17T09:55:48.469Z,10.20
2019-03-17T09:58:21.764Z,10.40
2019-03-17T10:00:53.847Z,10.60
2019-03-17T10:03:25.090Z,10.70
2019-03-17T10:06:02.157Z,10.40
2019-03-17T10:08:34.024Z,10.20
2019-03-17T10:11:10.608Z,10.10
2019-03-17T10:13:47.665Z,10.20
2019-03-17T10:16:20.687Z,10.20
2019-03-17T10:18:53.674Z,10.20
2019-03-17T10:21:34.864Z,10.20
2019-03-17T10:24:07.194Z,10.20
2019-03-17T10:26:43.729Z,10.20
2019-03-17T10:29:24.530Z,10.30
2019-03-17T10:31:56.320Z,10.30
2019-03-17T10:34:28.652Z,10.20
2019-03-17T10:36:59.096Z,10.20
2019-03-17T10:39:31.540Z,10.10
2019-03-17T10:42:04.236Z,10.40
2019-03-17T10:44:37.596Z,10.40
2019-03-17T10:47:10.268Z,10.60
2019-03-17T10:49:41.598Z,10.50
2019-03-17T10:52:15.024Z,10.40
2019-03-17T10:54:54.805Z,10.50
2019-03-17T10:57:36.663Z,10.50
2019-03-17T11:00:16.744Z,10.70
2019-03-17T11:03:01.650Z,10.90
2019-03-17T11:05:34.327Z,11.00
2019-03-17T11:08:09.598Z,11.20
2019-03-17T11:10:41.017Z,11.70
2019-03-17T11:13:28.767Z,12.70
2019-03-17T11:16:15.297Z,12.50
2019-03-17T11:18:46.823Z,11.90
2019-03-17T11:21:17.622Z,12.10
2019-03-17T11:23:50.365Z,12.20
2019-03-17T11:26:28.315Z,13.40
2019-03-17T11:29:02.527Z,14.80
2019-03-17T11:31:34.921Z,15.30
2019-03-17T11:34:07.958Z,15.70
2019-03-17T11:36:39.912Z,15.30
2019-03-17T11:39:10.524Z,15.40
2019-03-17T11:41:46.690Z,15.60
2019-03-17T11:44:19.437Z,16.20
2019-03-17T11:47:10.355Z,16.60
2019-03-17T11:49:42.844Z,17.00
2019-03-17T11:52:26.837Z,16.70
2019-03-17T11:54:58.605Z,16.40
2019-03-17T11:57:31.886Z,14.70
2019-03-17T12:00:04.968Z,13.60
2019-03-17T12:02:38.971Z,13.40
2019-03-17T12:05:09.936Z,14.00
2019-03-17T12:07:49.530Z,13.10
2019-03-17T12:10:22.670Z,13.10
2019-03-17T12:13:03.358Z,13.10
2019-03-17T12:15:40.936Z,13.00
2019-03-17T12:18:14.543Z,13.20
2019-03-17T12:20:45.665Z,13.10
2019-03-17T12:23:24.979Z,14.10
2019-03-17T12:25:57.983Z,15.00
2019-03-17T12:28:28.487Z,14.10
2019-03-17T12:31:18.216Z,12.80
2019-03-17T12:34:27.709Z,12.40
2019-03-17T12:36:52.093Z,12.10
2019-03-17T12:39:25.654Z,12.30
2019-03-17T12:42:03.242Z,12.50
2019-03-17T12:44:34.190Z,11.80
2019-03-17T12:47:10.783Z,11.60
2019-03-17T12:49:43.506Z,11.40
2019-03-17T12:52:25.483Z,11.20
2019-03-17T12:54:56.774Z,11.70
2019-03-17T12:57:36.781Z,13.50
2019-03-17T13:00:18.596Z,14.60
2019-03-17T13:02:49.989Z,14.80
2019-03-17T13:05:51.655Z,14.00
2019-03-17T13:08:24.347Z,14.00
2019-03-17T13:10:54.825Z,13.80
2019-03-17T13:13:29.925Z,14.60
2019-03-17T13:16:06.014Z,14.30
2019-03-17T13:18:38.375Z,12.80
2019-03-17T13:21:21.900Z,11.70
2019-03-17T13:23:57.187Z,12.10
2019-03-17T13:27:06.259Z,12.70
2019-03-17T13:29:35.433Z,12.60
2019-03-17T13:32:19.826Z,12.30
2019-03-17T13:34:51.323Z,12.60
2019-03-17T13:37:22.168Z,13.70
2019-03-17T13:39:52.477Z,14.40
2019-03-17T13:42:33.712Z,15.10
2019-03-17T13:45:04.184Z,14.00
2019-03-17T13:47:39.964Z,12.50
2019-03-17T13:50:12.746Z,11.60
2019-03-17T13:52:43.197Z,11.10
2019-03-17T13:55:13.655Z,10.90
2019-03-17T13:57:44.532Z,10.70
2019-03-17T14:00:17.029Z,10.60
2019-03-17T14:02:47.229Z,11.90
2019-03-17T14:05:23.679Z,13.50
2019-03-17T14:07:57.668Z,14.70
2019-03-17T14:10:40.388Z,15.60
2019-03-17T14:13:00.780Z,16.20
2019-03-17T14:15:32.061Z,15.90
2019-03-17T14:18:12.757Z,16.00
2019-03-17T14:21:06.106Z,15.90
2019-03-17T14:23:36.832Z,15.20
2019-03-17T14:26:10.610Z,13.70
2019-03-17T14:28:56.190Z,12.80
2019-03-17T14:31:30.319Z,12.50
2019-03-17T14:34:03.410Z,12.30
2019-03-17T14:36:38.173Z,12.00
2019-03-17T14:39:33.925Z,11.80
2019-03-17T14:42:10.270Z,11.40
2019-03-17T14:44:43.414Z,11.30
2019-03-17T14:47:16.011Z,11.30
2019-03-17T14:49:49.274Z,11.40
2019-03-17T14:52:21.773Z,11.30
2019-03-17T14:54:53.681Z,11.20
2019-03-17T14:57:25.942Z,11.20
2019-03-17T14:59:58.369Z,11.00
2019-03-17T15:02:34.626Z,10.90
2019-03-17T15:05:08.720Z,10.80
2019-03-17T15:07:40.999Z,10.60
2019-03-17T15:10:18.566Z,10.40
2019-03-17T15:12:48.905Z,10.30
2019-03-17T15:15:40.779Z,10.30
2019-03-17T15:18:11.318Z,10.20
2019-03-17T15:20:57.257Z,9.20
2019-03-17T15:23:36.464Z,8.30
2019-03-17T15:26:19.116Z,7.50
2019-03-17T15:28:55.879Z,7.20
2019-03-17T15:31:29.283Z,7.00
2019-03-17T15:34:06.044Z,7.20
2019-03-17T15:36:39.184Z,7.30
2019-03-17T15:39:39.323Z,7.40
2019-03-17T15:42:20.757Z,7.70
2019-03-17T15:44:52.231Z,7.90
2019-03-17T15:47:22.789Z,8.40
2019-03-17T15:50:05.646Z,8.40
2019-03-17T15:52:42.877Z,8.50
2019-03-17T15:55:18.123Z,8.40
2019-03-17T15:57:48.791Z,8.50
2019-03-17T16:00:25.653Z,8.50
2019-03-17T16:02:54.390Z,8.60
2019-03-17T16:05:33.243Z,8.70
2019-03-17T16:08:07.168Z,8.60
2019-03-17T16:10:41.032Z,8.50
2019-03-17T16:13:12.745Z,8.50
2019-03-17T16:15:43.355Z,8.40
2019-03-17T16:18:16.395Z,8.40
2019-03-17T16:20:47.185Z,8.40
2019-03-17T16:23:21.299Z,8.40
2019-03-17T16:25:53.865Z,8.30
2019-03-17T16:28:28.808Z,8.20
2019-03-17T16:30:59.643Z,8.20
2019-03-17T16:33:31.029Z,8.10
2019-03-17T16:36:02.545Z,8.10
2019-03-17T16:38:35.734Z,8.20
2019-03-17T16:41:08.602Z,8.10
2019-03-17T16:43:39.190Z,8.10
2019-03-17T16:46:13.311Z,8.10
2019-03-17T16:48:49.021Z,8.20
2019-03-17T16:51:20.182Z,8.40
2019-03-17T16:53:53.377Z,8.40
2019-03-17T16:56:24.810Z,8.40
2019-03-17T16:59:05.078Z,8.40
2019-03-17T17:01:38.114Z,8.40
2019-03-17T17:04:08.590Z,8.30
2019-03-17T17:06:39.398Z,8.30
2019-03-17T17:09:19.482Z,8.30
2019-03-17T17:11:58.296Z,8.30
2019-03-17T17:14:35.992Z,8.20
2019-03-17T17:17:22.595Z,8.20
2019-03-17T17:20:21.705Z,8.20
2019-03-17T17:23:02.047Z,8.10
2019-03-17T17:25:35.923Z,8.10
2019-03-17T17:28:23.440Z,8.00
2019-03-17T17:30:55.983Z,7.90
2019-03-17T17:33:27.922Z,7.90
2019-03-17T17:35:59.182Z,7.90
2019-03-17T17:38:34.949Z,7.90
2019-03-17T17:41:12.615Z,7.90
2019-03-17T17:43:43.738Z,7.90
2019-03-17T17:46:14.627Z,7.80
2019-03-17T17:48:46.028Z,8.10
2019-03-17T17:51:21.024Z,7.90
2019-03-17T17:53:52.748Z,7.90
2019-03-17T17:56:47.861Z,7.90
2019-03-17T17:59:20.844Z,7.80
2019-03-17T18:01:52.918Z,7.70
2019-03-17T18:04:32.345Z,7.60
2019-03-17T18:07:30.394Z,7.50
2019-03-17T18:10:19.098Z,7.50
2019-03-17T18:13:00.651Z,7.60
2019-03-17T18:15:38.461Z,7.60
2019-03-17T18:18:13.269Z,7.60
2019-03-17T18:20:45.824Z,7.20
2019-03-17T18:23:36.743Z,6.40
2019-03-17T18:26:19.986Z,5.60
2019-03-17T18:28:59.316Z,5.10
2019-03-17T18:31:40.827Z,4.80
2019-03-17T18:34:20.237Z,4.50
2019-03-17T18:36:52.202Z,4.40
2019-03-17T18:39:24.367Z,4.40
2019-03-17T18:42:02.709Z,4.50
2019-03-17T18:44:35.749Z,4.50
2019-03-17T18:47:11.362Z,4.50
2019-03-17T18:49:50.710Z,4.50
2019-03-17T18:52:32.024Z,4.70
2019-03-17T18:55:13.424Z,4.70
2019-03-17T18:57:46.899Z,4.40
2019-03-17T19:00:23.935Z,4.80
2019-03-17T19:03:01.829Z,4.80
2019-03-17T19:05:34.837Z,4.90
2019-03-17T19:08:07.448Z,5.00
2019-03-17T19:10:44.938Z,5.00
2019-03-17T19:13:21.655Z,5.00
2019-03-17T19:16:05.507Z,5.10
2019-03-17T19:18:41.696Z,5.20
2019-03-17T19:21:26.923Z,5.30
2019-03-17T19:24:01.168Z,5.30
2019-03-17T19:26:34.030Z,5.20
2019-03-17T19:29:06.001Z,5.20
2019-03-17T19:31:40.948Z,5.20
2019-03-17T19:34:48.663Z,5.20
2019-03-17T19:37:19.889Z,5.00
2019-03-17T19:40:30.860Z,4.90
2019-03-17T19:43:05.639Z,5.00
2019-03-17T19:46:00.527Z,4.90
2019-03-17T19:48:39.685Z,5.00
2019-03-17T19:51:26.044Z,5.00
2019-03-17T19:54:07.099Z,4.90
2019-03-17T19:56:44.329Z,5.00
2019-03-17T19:59:21.310Z,5.10
2019-03-17T20:01:58.452Z,5.10
2019-03-17T20:04:39.269Z,5.00
2019-03-17T20:07:18.644Z,5.10
2019-03-17T20:10:05.873Z,5.10
2019-03-17T20:12:42.903Z,5.00
2019-03-17T20:15:29.082Z,5.10
2019-03-17T20:18:04.177Z,5.10
2019-03-17T20:20:42.098Z,5.10
2019-03-17T20:23:31.865Z,5.10
2019-03-17T20:26:14.590Z,5.00
2019-03-17T20:29:02.465Z,5.00
2019-03-17T20:31:36.036Z,5.00
2019-03-17T20:34:15.918Z,5.00
2019-03-17T20:36:54.597Z,5.00
2019-03-17T20:39:27.890Z,4.90
2019-03-17T20:42:00.075Z,4.90
2019-03-17T20:44:37.681Z,4.90
2019-03-17T20:47:16.227Z,4.90
2019-03-17T20:49:57.650Z,5.00
2019-03-17T20:53:08.393Z,5.00
2019-03-17T21:00:08.843Z,5.00
2019-03-17T21:05:22.834Z,5.10
2019-03-17T21:08:04.003Z,5.10
2019-03-17T21:10:58.350Z,5.10
2019-03-17T21:13:47.422Z,5.10
2019-03-17T21:16:43.220Z,5.60
2019-03-17T21:19:32.486Z,5.00
2019-03-17T21:22:14.785Z,5.00
2019-03-17T21:27:57.509Z,5.00
2019-03-17T21:30:38.437Z,5.00
2019-03-17T21:33:27.489Z,5.00
2019-03-17T21:36:08.280Z,5.10
2019-03-17T21:38:50.577Z,5.20
2019-03-17T21:41:31.401Z,5.30
2019-03-17T21:44:09.325Z,5.10
2019-03-17T21:47:25.456Z,5.10
2019-03-17T21:52:38.825Z,5.20
2019-03-17T21:55:12.804Z,5.30
2019-03-17T21:57:47.745Z,5.30
2019-03-17T22:01:08.380Z,5.30
2019-03-17T22:05:02.752Z,5.30
2019-03-17T22:08:03.689Z,5.20
2019-03-17T22:10:47.317Z,4.70
2019-03-17T22:13:35.747Z,4.70
2019-03-17T22:16:15.265Z,4.60
2019-03-17T22:18:55.943Z,4.70
2019-03-17T22:22:18.099Z,4.70
2019-03-17T22:25:18.878Z,4.60
2019-03-17T22:28:08.525Z,4.60
2019-03-17T22:31:32.300Z,4.60
2019-03-17T22:34:53.752Z,4.60
2019-03-17T22:37:32.065Z,4.60
2019-03-17T22:40:10.076Z,4.70
2019-03-17T22:42:51.652Z,4.60
2019-03-17T22:45:41.033Z,4.70
2019-03-17T22:48:33.519Z,4.60
2019-03-17T22:51:11.377Z,4.60
2019-03-17T22:53:46.410Z,4.60
2019-03-17T22:56:19.138Z,4.60
2019-03-17T22:59:03.275Z,4.60
2019-03-17T23:01:40.745Z,4.60
2019-03-17T23:04:14.552Z,4.60
2019-03-17T23:06:47.539Z,4.60
2019-03-17T23:09:20.620Z,4.70
2019-03-17T23:11:57.493Z,4.70
2019-03-17T23:14:37.624Z,4.70
2019-03-17T23:17:13.215Z,4.80
2019-03-17T23:19:44.363Z,4.80
2019-03-17T23:22:29.359Z,4.80
2019-03-17T23:25:05.971Z,4.80
2019-03-17T23:27:39.099Z,4.80
2019-03-17T23:30:10.243Z,4.90
2019-03-17T23:32:53.127Z,4.90
2019-03-17T23:35:24.247Z,4.90
2019-03-17T23:38:09.958Z,4.90
2019-03-17T23:40:53.798Z,4.90
2019-03-17T23:43:40.426Z,4.90
2019-03-17T23:46:20.852Z,4.90
2019-03-17T23:48:55.739Z,4.90
2019-03-17T23:51:26.544Z,4.90
2019-03-17T23:54:03.950Z,4.90
2019-03-17T23:56:51.177Z,4.90
2019-03-17T23:59:26.907Z,4.90
